createdAt,value
2022-08-08T00:03:48.255Z,16.88
2022-08-08T00:08:54.436Z,16.77
2022-08-08T00:14:17.166Z,16.62
2022-08-08T00:19:30.842Z,16.68
2022-08-08T00:24:38.486Z,16.53
2022-08-08T00:29:47.222Z,16.44
2022-08-08T00:35:16.672Z,16.37
2022-08-08T00:41:07.209Z,16.26
2022-08-08T00:46:57.014Z,16.17
2022-08-08T00:52:19.565Z,16.13
2022-08-08T00:57:58.824Z,16.00
2022-08-08T01:04:02.546Z,16.07
2022-08-08T01:09:36.336Z,15.47
2022-08-08T01:15:43.613Z,15.21
2022-08-08T01:21:11.497Z,15.32
2022-08-08T01:26:28.562Z,15.18
2022-08-08T01:32:16.033Z,14.93
2022-08-08T01:37:58.145Z,14.99
2022-08-08T01:43:34.845Z,15.30
2022-08-08T01:48:51.206Z,15.12
2022-08-08T01:55:16.349Z,15.27
2022-08-08T02:00:01.583Z,15.20
2022-08-08T02:05:33.767Z,15.24
2022-08-08T02:11:02.531Z,15.46
2022-08-08T02:16:21.386Z,15.39
2022-08-08T02:21:48.937Z,15.28
2022-08-08T02:26:58.088Z,15.13
2022-08-08T02:32:15.750Z,15.08
2022-08-08T02:37:52.146Z,14.95
2022-08-08T02:44:38.730Z,14.95
2022-08-08T02:49:48.077Z,14.64
2022-08-08T02:55:20.651Z,14.40
2022-08-08T03:01:00.838Z,14.30
2022-08-08T03:06:57.588Z,14.08
2022-08-08T03:13:01.903Z,13.99
2022-08-08T03:18:14.106Z,14.08
2022-08-08T03:23:22.184Z,14.10
2022-08-08T03:28:31.867Z,14.03
2022-08-08T03:33:56.789Z,13.93
2022-08-08T03:39:15.158Z,14.01
2022-08-08T03:44:25.218Z,13.87
2022-08-08T03:50:00.514Z,13.79
2022-08-08T03:55:10.211Z,13.93
2022-08-08T04:00:18.304Z,13.89
2022-08-08T04:05:29.184Z,13.59
2022-08-08T04:10:39.066Z,13.75
2022-08-08T04:15:55.138Z,13.72
2022-08-08T04:21:10.024Z,13.72
2022-08-08T04:26:15.629Z,13.65
2022-08-08T04:31:30.645Z,13.47
2022-08-08T04:36:41.994Z,13.70
2022-08-08T04:41:46.300Z,13.74
2022-08-08T04:46:49.101Z,13.75
2022-08-08T04:51:57.647Z,13.76
2022-08-08T04:57:03.253Z,14.67
2022-08-08T05:02:07.309Z,14.86
2022-08-08T05:07:11.167Z,15.01
2022-08-08T05:12:20.461Z,15.54
2022-08-08T05:17:24.829Z,15.40
2022-08-08T05:22:28.175Z,15.63
2022-08-08T05:27:41.619Z,15.96
2022-08-08T05:32:47.401Z,15.21
2022-08-08T05:37:56.092Z,15.76
2022-08-08T05:43:39.260Z,15.49
2022-08-08T05:48:49.870Z,16.17
2022-08-08T05:54:27.206Z,15.40
2022-08-08T05:59:53.477Z,15.70
2022-08-08T06:04:55.075Z,16.07
2022-08-08T06:10:02.648Z,16.26
2022-08-08T06:15:12.525Z,15.84
2022-08-08T06:20:19.787Z,15.72
2022-08-08T06:26:34.554Z,15.56
2022-08-08T06:30:50.754Z,16.10
2022-08-08T06:36:07.154Z,16.25
2022-08-08T06:41:15.255Z,16.33
2022-08-08T06:46:23.659Z,16.60
2022-08-08T06:51:31.256Z,16.68
2022-08-08T06:56:53.018Z,16.92
2022-08-08T07:02:26.815Z,17.01
2022-08-08T07:07:33.037Z,17.45
2022-08-08T07:12:43.020Z,17.53
2022-08-08T07:18:00.862Z,17.63
2022-08-08T07:23:12.477Z,17.96
2022-08-08T07:28:31.592Z,18.34
2022-08-08T07:33:58.890Z,18.03
2022-08-08T07:39:03.853Z,17.86
2022-08-08T07:44:11.334Z,18.47
2022-08-08T07:49:32.494Z,18.36
2022-08-08T07:54:40.260Z,18.87
2022-08-08T07:59:51.353Z,19.07
2022-08-08T08:05:03.660Z,19.45
2022-08-08T08:10:12.561Z,19.21
2022-08-08T08:15:21.741Z,19.63
2022-08-08T08:20:30.912Z,19.84
2022-08-08T08:25:42.101Z,20.01
2022-08-08T08:30:48.018Z,20.17
2022-08-08T08:36:19.211Z,20.28
2022-08-08T08:41:20.066Z,20.39
2022-08-08T08:46:27.102Z,20.52
2022-08-08T08:51:33.153Z,20.70
2022-08-08T08:56:37.773Z,20.63
2022-08-08T09:01:47.880Z,20.97
2022-08-08T09:06:59.790Z,21.23
2022-08-08T09:12:07.479Z,21.24
2022-08-08T09:17:18.879Z,21.40
2022-08-08T09:22:27.415Z,21.41
2022-08-08T09:27:41.926Z,21.81
2022-08-08T09:33:55.711Z,22.01
2022-08-08T09:38:32.733Z,22.14
2022-08-08T09:44:05.126Z,22.08
2022-08-08T09:49:41.406Z,22.03
2022-08-08T09:54:38.293Z,22.43
2022-08-08T10:00:01.958Z,22.93
2022-08-08T10:05:22.679Z,22.75
2022-08-08T10:10:31.679Z,22.71
2022-08-08T10:15:39.024Z,23.23
2022-08-08T10:20:57.752Z,22.90
2022-08-08T10:26:05.437Z,23.17
2022-08-08T10:31:48.802Z,23.28
2022-08-08T10:36:52.815Z,23.39
2022-08-08T10:42:16.341Z,23.11
2022-08-08T10:47:21.554Z,23.36
2022-08-08T10:52:30.703Z,23.59
2022-08-08T10:57:50.454Z,23.98
2022-08-08T11:02:56.169Z,23.73
2022-08-08T11:08:37.088Z,24.23
2022-08-08T11:13:27.744Z,23.82
2022-08-08T11:18:33.362Z,23.94
2022-08-08T11:23:37.669Z,24.54
2022-08-08T11:28:43.111Z,24.79
2022-08-08T11:33:53.432Z,25.02
2022-08-08T11:39:05.611Z,24.46
2022-08-08T11:44:15.859Z,24.55
2022-08-08T11:49:20.282Z,25.37
2022-08-08T11:54:33.842Z,25.62
2022-08-08T12:00:01.828Z,25.76
2022-08-08T12:05:16.911Z,25.57
2022-08-08T12:10:21.490Z,24.59
2022-08-08T12:15:43.084Z,25.63
2022-08-08T12:20:50.922Z,25.92
2022-08-08T12:25:56.772Z,25.09
2022-08-08T12:31:06.466Z,25.95
2022-08-08T12:36:13.727Z,25.46
2022-08-08T12:41:35.054Z,26.37
2022-08-08T12:46:41.031Z,26.75
2022-08-08T12:51:53.688Z,25.61
2022-08-08T12:56:57.078Z,26.07
2022-08-08T13:02:02.494Z,26.41
2022-08-08T13:07:07.222Z,25.76
2022-08-08T13:12:27.492Z,26.39
2022-08-08T13:18:09.518Z,26.22
2022-08-08T13:23:31.186Z,26.47
2022-08-08T13:28:32.220Z,26.37
2022-08-08T13:33:42.313Z,26.63
2022-08-08T13:38:46.288Z,26.78
2022-08-08T13:43:49.706Z,25.80
2022-08-08T13:49:11.178Z,25.86
2022-08-08T13:54:21.622Z,26.37
2022-08-08T13:59:32.778Z,25.86
2022-08-08T14:04:37.545Z,25.83
2022-08-08T14:10:04.405Z,25.93
2022-08-08T14:15:09.891Z,25.02
2022-08-08T14:20:15.087Z,25.95
2022-08-08T14:25:47.039Z,25.47
2022-08-08T14:31:09.272Z,26.10
2022-08-08T14:36:13.812Z,24.71
2022-08-08T14:41:45.318Z,25.59
2022-08-08T14:46:42.962Z,25.56
2022-08-08T14:51:52.149Z,25.76
2022-08-08T14:56:56.206Z,25.30
2022-08-08T15:01:59.955Z,25.34
2022-08-08T15:07:04.419Z,25.42
2022-08-08T15:12:07.474Z,25.59
2022-08-08T15:17:11.278Z,25.72
2022-08-08T15:22:17.942Z,25.43
2022-08-08T15:28:04.345Z,25.85
2022-08-08T15:32:49.041Z,24.87
2022-08-08T15:37:53.082Z,24.20
2022-08-08T15:42:55.965Z,25.00
2022-08-08T15:48:05.552Z,24.99
2022-08-08T15:53:22.145Z,25.18
2022-08-08T15:58:28.062Z,25.07
2022-08-08T16:03:31.163Z,24.99
2022-08-08T16:08:36.459Z,24.50
2022-08-08T16:13:43.535Z,24.36
2022-08-08T16:18:56.174Z,24.46
2022-08-08T16:24:03.445Z,24.56
2022-08-08T16:29:09.444Z,24.82
2022-08-08T16:34:12.620Z,24.81
2022-08-08T16:39:59.697Z,24.71
2022-08-08T16:44:40.461Z,24.43
2022-08-08T16:49:50.425Z,24.14
2022-08-08T16:55:24.191Z,24.28
2022-08-08T17:00:26.892Z,24.10
2022-08-08T17:05:42.467Z,24.18
2022-08-08T17:10:57.489Z,24.24
2022-08-08T17:16:01.783Z,24.22
2022-08-08T17:21:10.052Z,24.18
2022-08-08T17:26:14.062Z,24.04
2022-08-08T17:31:45.289Z,23.82
2022-08-08T17:37:00.626Z,23.63
2022-08-08T17:42:07.610Z,23.81
2022-08-08T17:47:10.932Z,23.71
2022-08-08T17:52:18.974Z,23.31
2022-08-08T17:57:23.066Z,23.00
2022-08-08T18:02:29.054Z,23.27
2022-08-08T18:08:01.211Z,23.35
2022-08-08T18:12:57.066Z,23.24
2022-08-08T18:18:04.968Z,22.87
2022-08-08T18:23:22.478Z,22.94
2022-08-08T18:28:26.545Z,22.92
2022-08-08T18:34:10.770Z,22.60
2022-08-08T18:38:51.926Z,22.54
2022-08-08T18:43:55.941Z,22.40
2022-08-08T18:48:58.792Z,22.45
2022-08-08T18:54:05.792Z,22.40
2022-08-08T18:59:17.944Z,22.28
2022-08-08T19:04:20.814Z,22.13
2022-08-08T19:09:32.323Z,21.81
2022-08-08T19:14:48.658Z,21.73
2022-08-08T19:20:02.127Z,21.28
2022-08-08T19:26:01.981Z,21.07
2022-08-08T19:30:30.909Z,21.25
2022-08-08T19:35:45.345Z,20.94
2022-08-08T19:40:57.423Z,20.72
2022-08-08T19:46:04.682Z,20.80
2022-08-08T19:51:07.539Z,20.82
2022-08-08T19:56:12.739Z,20.96
2022-08-08T20:01:19.646Z,20.67
2022-08-08T20:06:24.209Z,20.37
2022-08-08T20:11:27.023Z,20.34
2022-08-08T20:16:34.259Z,20.55
2022-08-08T20:21:41.546Z,20.49
2022-08-08T20:26:47.228Z,20.38
2022-08-08T20:32:10.033Z,19.92
2022-08-08T20:37:16.214Z,19.88
2022-08-08T20:42:28.610Z,19.76
2022-08-08T20:47:36.648Z,19.51
2022-08-08T20:52:44.769Z,19.77
2022-08-08T20:57:51.078Z,19.63
2022-08-08T21:02:55.622Z,19.65
2022-08-08T21:08:36.427Z,19.50
2022-08-08T21:13:23.396Z,19.39
2022-08-08T21:18:44.136Z,19.24
2022-08-08T21:24:01.887Z,19.30
2022-08-08T21:29:05.905Z,18.90
2022-08-08T21:34:11.395Z,19.01
2022-08-08T21:39:23.792Z,19.24
2022-08-08T21:44:59.082Z,18.95
2022-08-08T21:50:08.137Z,18.88
2022-08-08T21:56:06.552Z,18.82
2022-08-08T22:00:40.558Z,18.83
2022-08-08T22:05:45.121Z,19.02
2022-08-08T22:10:51.162Z,18.97
2022-08-08T22:16:00.832Z,18.80
2022-08-08T22:21:14.571Z,18.74
2022-08-08T22:26:29.514Z,18.75
2022-08-08T22:31:35.073Z,18.64
2022-08-08T22:36:39.454Z,18.57
2022-08-08T22:41:45.695Z,18.61
2022-08-08T22:46:48.493Z,18.47
2022-08-08T22:51:55.541Z,18.34
2022-08-08T22:56:59.499Z,18.31
2022-08-08T23:02:12.579Z,18.31
2022-08-08T23:12:40.082Z,18.19
2022-08-08T23:17:46.875Z,18.21
2022-08-08T23:22:58.709Z,18.27
2022-08-08T23:28:03.565Z,18.00
2022-08-08T23:33:06.951Z,17.80
2022-08-08T23:38:25.625Z,17.36
2022-08-08T23:43:31.789Z,17.40
2022-08-08T23:48:59.781Z,17.06
2022-08-08T23:54:42.440Z,17.12
2022-08-08T23:59:35.573Z,17.19
